createdAt,value
2023-03-29T00:00:21.877Z,7.84
2023-03-29T00:02:50.212Z,7.93
2023-03-29T00:05:18.827Z,7.98
2023-03-29T00:07:46.646Z,8.00
2023-03-29T00:10:15.876Z,7.91
2023-03-29T00:12:43.703Z,7.83
2023-03-29T00:15:11.849Z,7.88
2023-03-29T00:17:40.079Z,7.90
2023-03-29T00:20:10.208Z,7.82
2023-03-29T00:22:39.801Z,7.82
2023-03-29T00:25:08.146Z,7.81
2023-03-29T00:27:37.724Z,7.55
2023-03-29T00:30:06.105Z,7.63
2023-03-29T00:32:34.590Z,7.62
2023-03-29T00:35:02.392Z,7.62
2023-03-29T00:37:30.899Z,7.52
2023-03-29T00:39:59.136Z,7.72
2023-03-29T00:42:27.260Z,7.74
2023-03-29T00:45:05.982Z,7.72
2023-03-29T00:47:36.734Z,7.61
2023-03-29T00:50:07.543Z,7.52
2023-03-29T00:52:37.331Z,7.61
2023-03-29T00:55:07.732Z,7.63
2023-03-29T00:57:37.337Z,7.60
2023-03-29T01:00:09.910Z,7.63
2023-03-29T01:02:39.878Z,7.44
2023-03-29T01:05:09.730Z,7.61
2023-03-29T01:07:42.374Z,7.36
2023-03-29T01:10:13.557Z,7.52
2023-03-29T01:12:43.980Z,7.66
2023-03-29T01:15:14.209Z,7.68
2023-03-29T01:17:50.330Z,7.91
2023-03-29T01:20:22.221Z,7.61
2023-03-29T01:23:00.618Z,7.49
2023-03-29T01:25:33.303Z,7.70
2023-03-29T01:28:04.599Z,7.94
2023-03-29T01:30:34.588Z,7.70
2023-03-29T01:33:05.369Z,7.72
2023-03-29T01:35:35.724Z,7.65
2023-03-29T01:38:07.334Z,7.62
2023-03-29T01:40:35.350Z,7.80
2023-03-29T01:43:12.017Z,7.76
2023-03-29T01:45:43.324Z,7.81
2023-03-29T01:48:15.328Z,7.67
2023-03-29T01:50:46.277Z,7.70
2023-03-29T01:53:18.217Z,7.80
2023-03-29T01:55:48.543Z,7.50
2023-03-29T01:58:18.295Z,7.74
2023-03-29T02:00:47.379Z,7.62
2023-03-29T02:03:17.594Z,7.76
2023-03-29T02:05:45.998Z,7.66
2023-03-29T02:08:16.050Z,7.72
2023-03-29T02:10:43.961Z,7.75
2023-03-29T02:13:12.501Z,7.71
2023-03-29T02:15:41.641Z,7.62
2023-03-29T02:18:09.456Z,7.50
2023-03-29T02:20:40.655Z,7.48
2023-03-29T02:23:10.296Z,7.59
2023-03-29T02:25:38.476Z,7.74
2023-03-29T02:28:07.247Z,7.87
2023-03-29T02:30:39.323Z,7.62
2023-03-29T02:33:11.065Z,7.57
2023-03-29T02:35:42.611Z,7.53
2023-03-29T02:38:11.505Z,7.58
2023-03-29T02:40:42.565Z,7.63
2023-03-29T02:43:11.531Z,7.78
2023-03-29T02:45:41.144Z,7.68
2023-03-29T02:48:13.579Z,7.74
2023-03-29T02:50:43.645Z,7.66
2023-03-29T02:53:14.169Z,7.78
2023-03-29T02:55:46.090Z,7.66
2023-03-29T02:58:15.377Z,7.81
2023-03-29T03:00:45.755Z,7.81
2023-03-29T03:03:15.404Z,7.86
2023-03-29T03:05:45.232Z,7.86
2023-03-29T03:08:13.981Z,7.71
2023-03-29T03:10:41.996Z,7.74
2023-03-29T03:13:09.841Z,7.91
2023-03-29T03:15:41.357Z,7.93
2023-03-29T03:18:09.547Z,7.77
2023-03-29T03:20:40.105Z,7.82
2023-03-29T03:23:09.013Z,7.80
2023-03-29T03:25:36.862Z,7.82
2023-03-29T03:28:05.107Z,7.66
2023-03-29T03:30:33.858Z,7.40
2023-03-29T03:33:20.330Z,7.65
2023-03-29T03:36:18.220Z,7.71
2023-03-29T03:38:46.712Z,7.75
2023-03-29T03:41:14.513Z,7.68
2023-03-29T03:43:45.989Z,7.76
2023-03-29T03:46:14.118Z,7.81
2023-03-29T03:48:41.992Z,7.68
2023-03-29T03:51:18.489Z,7.69
2023-03-29T03:53:46.618Z,7.71
2023-03-29T03:56:14.600Z,7.78
2023-03-29T03:59:02.568Z,7.62
2023-03-29T04:01:35.416Z,7.77
2023-03-29T04:04:14.352Z,7.81
2023-03-29T04:06:54.085Z,7.89
2023-03-29T04:09:49.973Z,7.90
2023-03-29T04:12:28.826Z,8.00
2023-03-29T04:14:56.693Z,7.86
2023-03-29T04:17:26.417Z,7.95
2023-03-29T04:20:20.363Z,7.99
2023-03-29T04:22:49.761Z,7.74
2023-03-29T04:25:18.094Z,7.78
2023-03-29T04:27:49.050Z,7.93
2023-03-29T04:30:31.321Z,8.00
2023-03-29T04:33:01.899Z,8.03
2023-03-29T04:35:30.364Z,8.05
2023-03-29T04:37:59.788Z,7.95
2023-03-29T04:40:28.862Z,8.02
2023-03-29T04:43:09.940Z,7.92
2023-03-29T04:45:43.450Z,7.99
2023-03-29T04:48:16.614Z,7.86
2023-03-29T04:50:47.471Z,7.87
2023-03-29T04:53:18.417Z,7.91
2023-03-29T04:55:47.693Z,7.91
2023-03-29T04:58:25.239Z,8.02
2023-03-29T05:00:56.613Z,8.02
2023-03-29T05:03:32.344Z,7.95
2023-03-29T05:06:07.110Z,8.00
2023-03-29T05:08:39.315Z,7.97
2023-03-29T05:11:30.458Z,7.92
2023-03-29T05:14:02.338Z,7.87
2023-03-29T05:16:33.037Z,8.06
2023-03-29T05:19:01.491Z,7.94
2023-03-29T05:21:30.444Z,7.80
2023-03-29T05:24:04.629Z,7.82
2023-03-29T05:26:51.976Z,8.08
2023-03-29T05:29:20.334Z,7.95
2023-03-29T05:31:54.141Z,7.85
2023-03-29T05:34:22.552Z,7.93
2023-03-29T05:36:54.460Z,8.03
2023-03-29T05:39:23.880Z,8.13
2023-03-29T05:41:51.684Z,8.17
2023-03-29T05:44:25.512Z,8.18
2023-03-29T05:46:59.342Z,8.18
2023-03-29T05:49:27.184Z,8.16
2023-03-29T05:52:15.698Z,8.13
2023-03-29T05:54:44.897Z,8.02
2023-03-29T05:57:13.437Z,8.12
2023-03-29T05:59:42.359Z,7.93
2023-03-29T06:02:11.195Z,7.98
2023-03-29T06:04:44.036Z,7.92
2023-03-29T06:07:24.578Z,7.98
2023-03-29T06:10:14.079Z,7.98
2023-03-29T06:12:47.003Z,7.84
2023-03-29T06:15:15.949Z,7.84
2023-03-29T06:17:50.133Z,7.87
2023-03-29T06:20:18.562Z,8.11
2023-03-29T06:22:51.512Z,8.03
2023-03-29T06:25:21.231Z,7.89
2023-03-29T06:27:52.113Z,8.03
2023-03-29T06:30:21.579Z,7.99
2023-03-29T06:32:52.921Z,7.95
2023-03-29T06:35:42.982Z,7.94
2023-03-29T06:38:15.170Z,7.78
2023-03-29T06:41:08.878Z,7.75
2023-03-29T06:43:58.419Z,7.96
2023-03-29T06:46:33.261Z,7.81
2023-03-29T06:49:06.432Z,7.80
2023-03-29T06:51:48.701Z,7.99
2023-03-29T06:54:16.977Z,7.82
2023-03-29T06:56:59.566Z,7.91
2023-03-29T06:59:29.361Z,8.02
2023-03-29T07:01:59.807Z,7.99
2023-03-29T07:04:46.128Z,7.85
2023-03-29T07:07:22.177Z,7.74
2023-03-29T07:09:55.706Z,7.82
2023-03-29T07:12:46.210Z,7.92
2023-03-29T07:15:16.403Z,7.91
2023-03-29T07:18:04.909Z,7.85
2023-03-29T07:20:34.215Z,8.11
2023-03-29T07:23:10.673Z,7.93
2023-03-29T07:25:41.012Z,8.00
2023-03-29T07:28:11.326Z,8.09
2023-03-29T07:30:40.182Z,8.30
2023-03-29T07:33:17.933Z,8.10
2023-03-29T07:35:59.436Z,8.20
2023-03-29T07:38:28.635Z,8.23
2023-03-29T07:41:04.915Z,8.18
2023-03-29T07:43:34.800Z,8.26
2023-03-29T07:46:03.104Z,7.95
2023-03-29T07:48:33.772Z,8.07
2023-03-29T07:51:06.109Z,8.07
2023-03-29T07:53:43.028Z,8.13
2023-03-29T07:56:29.086Z,8.21
2023-03-29T07:59:21.624Z,8.09
2023-03-29T08:02:01.783Z,8.06
2023-03-29T08:04:34.638Z,8.27
2023-03-29T08:07:19.924Z,8.29
2023-03-29T08:10:21.602Z,8.34
2023-03-29T08:12:58.293Z,8.29
2023-03-29T08:15:40.992Z,8.38
2023-03-29T08:18:19.391Z,8.46
2023-03-29T08:20:47.162Z,8.49
2023-03-29T08:23:14.897Z,8.40
2023-03-29T08:26:03.270Z,8.29
2023-03-29T08:28:32.213Z,8.30
2023-03-29T08:31:02.499Z,8.41
2023-03-29T08:33:30.503Z,8.52
2023-03-29T08:36:18.540Z,8.59
2023-03-29T08:38:47.442Z,8.91
2023-03-29T08:41:30.825Z,9.04
2023-03-29T08:44:10.874Z,9.06
2023-03-29T08:47:03.779Z,9.12
2023-03-29T08:49:39.903Z,9.14
2023-03-29T08:52:21.085Z,9.08
2023-03-29T08:54:54.061Z,9.13
2023-03-29T08:57:32.910Z,9.13
2023-03-29T09:00:18.920Z,9.19
2023-03-29T09:02:49.472Z,8.96
2023-03-29T09:05:23.950Z,9.13
2023-03-29T09:08:01.106Z,9.31
2023-03-29T09:10:40.949Z,9.30
2023-03-29T09:13:26.030Z,9.30
2023-03-29T09:16:05.830Z,9.40
2023-03-29T09:18:53.145Z,9.29
2023-03-29T09:21:27.355Z,9.49
2023-03-29T09:24:24.338Z,9.70
2023-03-29T09:27:04.234Z,9.70
2023-03-29T09:29:51.352Z,9.74
2023-03-29T09:32:33.078Z,9.63
2023-03-29T09:35:18.621Z,9.78
2023-03-29T09:37:49.048Z,9.89
2023-03-29T09:40:23.710Z,9.89
2023-03-29T09:43:05.309Z,9.90
2023-03-29T09:45:33.611Z,10.07
2023-03-29T09:48:10.355Z,10.13
2023-03-29T09:50:43.192Z,10.12
2023-03-29T09:53:12.626Z,10.13
2023-03-29T09:55:49.790Z,10.19
2023-03-29T09:58:31.032Z,10.19
2023-03-29T10:01:00.744Z,10.22
2023-03-29T10:03:31.094Z,10.42
2023-03-29T10:06:10.835Z,10.40
2023-03-29T10:08:42.984Z,10.27
2023-03-29T10:11:18.970Z,10.37
2023-03-29T10:13:50.645Z,10.22
2023-03-29T10:16:22.053Z,10.23
2023-03-29T10:18:51.176Z,10.15
2023-03-29T10:21:21.329Z,10.20
2023-03-29T10:23:50.395Z,10.35
2023-03-29T10:26:28.723Z,10.29
2023-03-29T10:29:00.348Z,10.24
2023-03-29T10:31:31.203Z,10.35
2023-03-29T10:34:05.069Z,10.39
2023-03-29T10:36:35.460Z,10.54
2023-03-29T10:39:06.354Z,10.49
2023-03-29T10:41:36.450Z,10.59
2023-03-29T10:44:05.276Z,10.66
2023-03-29T10:46:41.211Z,10.78
2023-03-29T10:49:19.089Z,10.60
2023-03-29T10:51:50.716Z,10.70
2023-03-29T10:54:22.200Z,10.53
2023-03-29T10:56:53.673Z,10.70
2023-03-29T10:59:29.723Z,10.87
2023-03-29T11:02:29.978Z,10.93
2023-03-29T11:05:13.592Z,11.10
2023-03-29T11:07:57.308Z,11.22
2023-03-29T11:10:36.611Z,11.03
2023-03-29T11:13:13.830Z,11.09
2023-03-29T11:15:52.886Z,11.37
2023-03-29T11:18:53.419Z,11.22
2023-03-29T11:21:29.832Z,11.49
2023-03-29T11:24:25.303Z,11.74
2023-03-29T11:27:05.711Z,11.88
2023-03-29T11:29:41.145Z,12.02
2023-03-29T11:32:15.759Z,12.10
2023-03-29T11:34:58.856Z,11.98
2023-03-29T11:37:34.925Z,11.95
2023-03-29T11:40:18.003Z,11.97
2023-03-29T11:42:49.456Z,11.94
2023-03-29T11:45:24.421Z,12.12
2023-03-29T11:47:55.627Z,12.00
2023-03-29T11:50:30.396Z,12.10
2023-03-29T11:53:03.324Z,12.18
2023-03-29T11:55:36.774Z,12.21
2023-03-29T11:58:11.135Z,12.09
2023-03-29T12:00:44.937Z,12.19
2023-03-29T12:03:16.083Z,12.17
2023-03-29T12:05:49.426Z,12.20
2023-03-29T12:08:23.613Z,12.25
2023-03-29T12:11:02.810Z,12.15
2023-03-29T12:13:35.184Z,12.17
2023-03-29T12:16:12.402Z,12.40
2023-03-29T12:18:42.881Z,12.48
2023-03-29T12:21:15.293Z,12.56
2023-03-29T12:23:45.903Z,12.40
2023-03-29T12:26:28.333Z,12.75
2023-03-29T12:29:10.059Z,12.81
2023-03-29T12:31:46.992Z,12.72
2023-03-29T12:34:37.748Z,12.83
2023-03-29T12:37:39.118Z,13.00
2023-03-29T12:40:29.434Z,13.19
2023-03-29T12:43:24.655Z,13.18
2023-03-29T12:46:17.432Z,13.01
2023-03-29T12:48:47.737Z,12.95
2023-03-29T12:51:18.438Z,13.06
2023-03-29T12:53:48.254Z,13.15
2023-03-29T12:56:18.729Z,13.12
2023-03-29T12:59:18.564Z,13.27
2023-03-29T13:02:00.253Z,13.35
2023-03-29T13:04:49.746Z,13.27
2023-03-29T13:07:31.217Z,13.21
2023-03-29T13:10:01.412Z,12.80
2023-03-29T13:12:33.406Z,12.96
2023-03-29T13:15:06.835Z,13.12
2023-03-29T13:17:51.778Z,13.24
2023-03-29T13:20:32.388Z,13.34
2023-03-29T13:23:17.801Z,13.48
2023-03-29T13:26:02.340Z,13.49
2023-03-29T13:28:41.594Z,13.48
2023-03-29T13:31:34.775Z,13.51
2023-03-29T13:34:08.972Z,13.38
2023-03-29T13:36:53.704Z,13.37
2023-03-29T13:39:24.329Z,13.38
2023-03-29T13:41:54.878Z,13.58
2023-03-29T13:44:36.129Z,13.55
2023-03-29T13:47:16.442Z,13.55
2023-03-29T13:49:51.707Z,13.56
2023-03-29T13:52:25.627Z,13.52
2023-03-29T13:54:58.740Z,13.62
2023-03-29T13:57:34.190Z,13.71
2023-03-29T14:00:11.999Z,13.66
2023-03-29T14:02:49.690Z,13.55
2023-03-29T14:05:20.735Z,13.35
2023-03-29T14:07:51.637Z,13.25
2023-03-29T14:10:23.898Z,13.38
2023-03-29T14:12:52.406Z,13.55
2023-03-29T14:15:24.234Z,13.44
2023-03-29T14:18:00.827Z,13.54
2023-03-29T14:20:31.801Z,13.74
2023-03-29T14:23:00.688Z,13.97
2023-03-29T14:25:30.661Z,13.83
2023-03-29T14:27:58.962Z,13.84
2023-03-29T14:30:29.336Z,13.91
2023-03-29T14:32:59.078Z,13.91
2023-03-29T14:35:33.493Z,14.17
2023-03-29T14:38:03.806Z,14.19
2023-03-29T14:40:32.674Z,13.98
2023-03-29T14:43:07.193Z,14.12
2023-03-29T14:45:35.651Z,14.19
2023-03-29T14:48:05.927Z,14.13
2023-03-29T14:50:36.557Z,13.96
2023-03-29T14:53:06.748Z,14.00
2023-03-29T14:55:36.563Z,13.92
2023-03-29T14:58:04.699Z,14.08
2023-03-29T15:00:42.256Z,14.24
2023-03-29T15:03:16.593Z,14.37
2023-03-29T15:05:48.806Z,14.32
2023-03-29T15:08:19.939Z,14.23
2023-03-29T15:10:48.225Z,14.15
2023-03-29T15:13:20.970Z,14.11
2023-03-29T15:15:53.636Z,14.16
2023-03-29T15:18:28.877Z,14.41
2023-03-29T15:20:56.820Z,14.54
2023-03-29T15:23:26.424Z,14.52
2023-03-29T15:25:58.394Z,14.52
2023-03-29T15:28:30.737Z,14.65
2023-03-29T15:31:07.861Z,14.59
2023-03-29T15:33:39.786Z,14.57
2023-03-29T15:36:09.995Z,14.49
2023-03-29T15:41:10.608Z,14.52
2023-03-29T15:43:38.947Z,14.50
2023-03-29T15:46:07.623Z,14.34
2023-03-29T15:48:37.478Z,14.44
2023-03-29T15:51:06.995Z,14.31
2023-03-29T15:53:36.371Z,14.47
2023-03-29T15:56:07.923Z,14.44
2023-03-29T15:58:37.027Z,14.38
2023-03-29T16:01:13.228Z,14.44
2023-03-29T16:03:46.979Z,14.44
2023-03-29T16:06:17.326Z,14.39
2023-03-29T16:08:46.019Z,14.33
2023-03-29T16:11:14.081Z,14.42
2023-03-29T16:13:42.196Z,14.45
2023-03-29T16:16:12.255Z,14.29
2023-03-29T16:18:40.663Z,14.28
2023-03-29T16:21:14.264Z,14.12
2023-03-29T16:23:42.899Z,14.44
2023-03-29T16:26:13.723Z,14.22
2023-03-29T16:28:43.324Z,14.26
2023-03-29T16:31:13.381Z,14.09
2023-03-29T16:33:42.282Z,14.00
2023-03-29T16:36:12.109Z,13.99
2023-03-29T16:38:40.630Z,14.03
2023-03-29T16:41:09.041Z,14.13
2023-03-29T16:43:38.601Z,14.19
2023-03-29T16:46:08.816Z,14.06
2023-03-29T16:48:37.260Z,14.12
2023-03-29T16:51:06.931Z,14.18
2023-03-29T16:53:36.409Z,14.11
2023-03-29T16:56:05.973Z,14.06
2023-03-29T16:58:34.254Z,13.96
2023-03-29T17:01:09.936Z,13.92
2023-03-29T17:03:38.379Z,13.93
2023-03-29T17:06:07.799Z,13.89
2023-03-29T17:08:37.390Z,13.94
2023-03-29T17:11:07.500Z,14.00
2023-03-29T17:13:35.574Z,13.95
2023-03-29T17:16:04.042Z,14.00
2023-03-29T17:18:32.696Z,13.94
2023-03-29T17:21:01.651Z,13.80
2023-03-29T17:23:29.835Z,13.80
2023-03-29T17:25:59.660Z,13.94
2023-03-29T17:28:27.623Z,13.96
2023-03-29T17:30:55.992Z,13.85
2023-03-29T17:33:25.885Z,13.62
2023-03-29T17:35:53.881Z,13.46
2023-03-29T17:38:21.900Z,13.49
2023-03-29T17:40:53.559Z,13.10
2023-03-29T17:43:23.362Z,13.18
2023-03-29T17:45:52.641Z,13.10
2023-03-29T17:48:21.249Z,13.19
2023-03-29T17:50:49.445Z,13.25
2023-03-29T17:53:19.488Z,13.26
2023-03-29T17:55:47.455Z,13.30
2023-03-29T17:58:15.382Z,13.36
2023-03-29T18:00:44.894Z,13.28
2023-03-29T18:03:14.584Z,13.30
2023-03-29T18:05:42.921Z,13.31
2023-03-29T18:08:12.824Z,13.30
2023-03-29T18:10:40.758Z,13.25
2023-03-29T18:13:11.220Z,13.31
2023-03-29T18:15:39.185Z,13.02
2023-03-29T18:18:08.685Z,13.03
2023-03-29T18:20:36.725Z,12.99
2023-03-29T18:23:04.951Z,13.02
2023-03-29T18:25:32.988Z,13.03
2023-03-29T18:28:00.834Z,13.02
2023-03-29T18:30:28.781Z,13.07
2023-03-29T18:32:56.819Z,13.05
2023-03-29T18:35:26.199Z,13.00
2023-03-29T18:37:55.043Z,12.99
2023-03-29T18:40:24.876Z,12.98
2023-03-29T18:42:53.202Z,12.95
2023-03-29T18:45:21.456Z,13.00
2023-03-29T18:47:50.648Z,12.89
2023-03-29T18:50:18.968Z,13.03
2023-03-29T18:52:48.317Z,13.10
2023-03-29T18:55:16.524Z,13.05
2023-03-29T18:57:44.554Z,13.09
2023-03-29T19:00:13.225Z,13.19
2023-03-29T19:02:41.353Z,13.21
2023-03-29T19:05:10.886Z,13.27
2023-03-29T19:07:39.173Z,13.30
2023-03-29T19:10:09.745Z,13.29
2023-03-29T19:12:37.729Z,13.36
2023-03-29T19:15:07.172Z,13.27
2023-03-29T19:17:35.339Z,13.28
2023-03-29T19:20:04.774Z,13.34
2023-03-29T19:22:34.003Z,13.35
2023-03-29T19:25:02.022Z,13.44
2023-03-29T19:27:31.729Z,13.39
2023-03-29T19:29:59.792Z,13.38
2023-03-29T19:32:27.882Z,13.34
2023-03-29T19:34:55.971Z,13.26
2023-03-29T19:37:23.877Z,13.31
2023-03-29T19:39:54.532Z,13.33
2023-03-29T19:42:22.714Z,13.31
2023-03-29T19:44:52.295Z,13.30
2023-03-29T19:47:20.129Z,13.26
2023-03-29T19:49:48.071Z,13.32
2023-03-29T19:52:16.104Z,13.39
2023-03-29T19:54:44.250Z,13.35
2023-03-29T19:57:12.533Z,13.39
2023-03-29T19:59:41.078Z,13.37
2023-03-29T20:02:12.293Z,13.39
2023-03-29T20:04:40.852Z,13.42
2023-03-29T20:07:09.058Z,13.49
2023-03-29T20:09:37.710Z,13.38
2023-03-29T20:12:06.049Z,13.45
2023-03-29T20:14:34.932Z,13.52
2023-03-29T20:17:03.472Z,13.47
2023-03-29T20:19:36.727Z,13.45
2023-03-29T20:22:05.268Z,13.46
2023-03-29T20:24:34.693Z,13.49
2023-03-29T20:27:05.589Z,13.53
2023-03-29T20:29:34.081Z,13.50
2023-03-29T20:32:02.934Z,13.46
2023-03-29T20:34:32.767Z,13.49
2023-03-29T20:37:06.685Z,13.52
2023-03-29T20:39:35.952Z,13.50
2023-03-29T20:42:04.340Z,13.50
2023-03-29T20:44:34.861Z,13.52
2023-03-29T20:47:08.286Z,13.55
2023-03-29T20:49:38.146Z,13.61
2023-03-29T20:52:08.570Z,13.59
2023-03-29T20:54:39.707Z,13.64
2023-03-29T20:57:08.081Z,13.61
2023-03-29T20:59:38.023Z,13.60
2023-03-29T21:02:06.949Z,13.65
2023-03-29T21:04:37.189Z,13.60
2023-03-29T21:07:08.159Z,13.63
2023-03-29T21:09:38.711Z,13.61
2023-03-29T21:12:07.316Z,13.66
2023-03-29T21:14:38.952Z,13.66
2023-03-29T21:17:09.286Z,13.60
2023-03-29T21:19:43.974Z,13.59
2023-03-29T21:22:16.692Z,13.48
2023-03-29T21:24:45.194Z,13.60
2023-03-29T21:27:14.452Z,13.55
2023-03-29T21:29:44.251Z,13.51
2023-03-29T21:32:14.980Z,13.54
2023-03-29T21:34:44.708Z,13.54
2023-03-29T21:37:15.372Z,13.54
2023-03-29T21:39:44.141Z,13.52
2023-03-29T21:42:15.516Z,13.44
2023-03-29T21:44:44.638Z,13.41
2023-03-29T21:47:13.036Z,13.50
2023-03-29T21:49:46.263Z,13.54
2023-03-29T21:52:15.231Z,13.59
2023-03-29T21:54:44.007Z,13.60
2023-03-29T21:57:12.755Z,13.61
2023-03-29T21:59:41.796Z,13.60
2023-03-29T22:02:11.060Z,13.67
2023-03-29T22:04:39.343Z,13.67
2023-03-29T22:07:10.930Z,13.70
2023-03-29T22:09:41.317Z,13.67
2023-03-29T22:12:10.692Z,13.65
2023-03-29T22:14:38.685Z,13.61
2023-03-29T22:17:07.053Z,13.59
2023-03-29T22:19:38.821Z,13.45
2023-03-29T22:22:13.505Z,13.55
2023-03-29T22:24:42.251Z,13.67
2023-03-29T22:27:10.679Z,13.69
2023-03-29T22:29:38.709Z,13.74
2023-03-29T22:32:06.900Z,13.69
2023-03-29T22:34:35.473Z,13.72
2023-03-29T22:37:03.913Z,13.66
2023-03-29T22:39:35.983Z,13.68
2023-03-29T22:42:04.246Z,13.64
2023-03-29T22:44:34.039Z,13.51
2023-03-29T22:47:02.531Z,13.44
2023-03-29T22:49:31.000Z,13.51
2023-03-29T22:51:59.692Z,13.47
2023-03-29T22:54:27.824Z,13.38
2023-03-29T22:56:57.774Z,13.28
2023-03-29T22:59:26.927Z,13.34
2023-03-29T23:01:55.028Z,13.28
2023-03-29T23:04:23.270Z,13.38
2023-03-29T23:06:51.527Z,13.35
2023-03-29T23:09:19.659Z,13.38
2023-03-29T23:11:47.813Z,13.36
2023-03-29T23:14:18.945Z,13.48
2023-03-29T23:16:47.291Z,13.41
2023-03-29T23:19:15.294Z,13.55
2023-03-29T23:21:43.297Z,13.64
2023-03-29T23:24:11.171Z,13.67
2023-03-29T23:26:39.144Z,13.60
2023-03-29T23:29:07.688Z,13.61
2023-03-29T23:31:37.889Z,13.49
2023-03-29T23:34:06.158Z,13.55
2023-03-29T23:36:34.045Z,13.58
2023-03-29T23:39:02.013Z,13.59
2023-03-29T23:41:30.473Z,13.46
2023-03-29T23:43:58.595Z,13.57
2023-03-29T23:46:26.610Z,13.66
2023-03-29T23:48:56.113Z,13.59
2023-03-29T23:51:28.471Z,13.66
2023-03-29T23:53:57.066Z,13.60
2023-03-29T23:56:25.121Z,13.48
2023-03-29T23:58:53.066Z,13.51
